Sao Sebastiao da Bela Vista, Brazil
Current Conditions -  °F | °C
As of 4:00 PM on Sunday 21 Dec 2014 (Local Time) from SARI Reporting Station
Thunderstorm Thunderstorm  
Wind Chill: 77°   Ceiling: 3000
Heat Index: 78°   Visibility: 5mi
Dew Point: 75°   Wind: 14mph
Humidity: 94%   Direction: 270°W
Pressure: 29.65"   Gusts: NA
Location:  26.05°S, 53.35°W
Report Text: SARI 211800Z 27012KT 8000 -TSRA SCT015BKN030 FEW050CB 25/24 Q1004
Loading
Personal Weather Stations






























Interactive Weather Map New forecast layout! Learn more

10-Day Weather Forecast

Advertisements
Track Severe Weather on mobile